createdAt,value
2022-10-03T00:01:41.289Z,6.28
2022-10-03T00:04:26.289Z,6.18
2022-10-03T00:07:21.560Z,5.60
2022-10-03T00:09:53.413Z,5.70
2022-10-03T00:12:40.208Z,4.95
2022-10-03T00:15:09.709Z,5.60
2022-10-03T00:17:55.075Z,5.53
2022-10-03T00:20:34.542Z,6.90
2022-10-03T00:23:07.384Z,4.97
2022-10-03T00:25:42.803Z,5.78
2022-10-03T00:28:21.456Z,6.20
2022-10-03T00:31:03.269Z,5.45
2022-10-03T00:33:38.972Z,5.32
2022-10-03T00:36:17.695Z,4.88
2022-10-03T00:39:02.962Z,5.90
2022-10-03T00:41:45.889Z,6.13
2022-10-03T00:44:28.039Z,5.50
2022-10-03T00:46:59.619Z,5.22
2022-10-03T00:49:39.006Z,5.07
2022-10-03T00:52:23.772Z,6.25
2022-10-03T00:54:53.368Z,5.60
2022-10-03T00:57:25.424Z,6.13
2022-10-03T01:00:10.658Z,5.53
2022-10-03T01:02:44.460Z,5.72
2022-10-03T01:05:29.918Z,5.93
2022-10-03T01:07:59.449Z,5.32
2022-10-03T01:10:34.671Z,5.40
2022-10-03T01:13:08.981Z,6.03
2022-10-03T01:15:54.461Z,5.25
2022-10-03T01:18:40.277Z,5.78
2022-10-03T01:21:12.118Z,5.80
2022-10-03T01:23:38.630Z,7.95
2022-10-03T01:26:19.592Z,5.43
2022-10-03T01:29:07.651Z,5.93
2022-10-03T01:31:39.120Z,6.22
2022-10-03T01:34:11.288Z,5.22
2022-10-03T01:36:41.724Z,6.13
2022-10-03T01:39:14.784Z,5.60
2022-10-03T01:41:51.002Z,6.35
2022-10-03T01:44:33.927Z,5.10
2022-10-03T01:47:15.633Z,5.63
2022-10-03T01:49:48.606Z,5.68
2022-10-03T01:52:25.069Z,6.22
2022-10-03T01:55:00.433Z,5.57
2022-10-03T01:57:49.714Z,5.70
2022-10-03T02:00:16.305Z,6.53
2022-10-03T02:02:45.697Z,6.38
2022-10-03T02:05:17.549Z,6.28
2022-10-03T02:07:49.843Z,6.43
2022-10-03T02:10:16.914Z,5.20
2022-10-03T02:13:06.489Z,5.18
2022-10-03T02:15:40.019Z,5.85
2022-10-03T02:18:25.315Z,6.00
2022-10-03T02:20:54.222Z,5.95
2022-10-03T02:23:23.759Z,6.15
2022-10-03T02:26:09.071Z,5.50
2022-10-03T02:28:47.731Z,5.50
2022-10-03T02:31:33.369Z,5.85
2022-10-03T02:33:59.966Z,5.60
2022-10-03T02:36:32.521Z,7.57
2022-10-03T02:38:59.756Z,6.00
2022-10-03T02:41:44.782Z,5.80
2022-10-03T02:44:26.488Z,6.82
2022-10-03T02:47:11.706Z,5.85
2022-10-03T02:50:06.087Z,6.03
2022-10-03T02:52:51.307Z,6.32
2022-10-03T02:55:27.962Z,5.95
2022-10-03T02:57:54.374Z,4.90
2022-10-03T03:00:21.965Z,5.45
2022-10-03T03:02:51.397Z,5.40
2022-10-03T03:05:23.915Z,6.25
2022-10-03T03:08:08.762Z,5.38
2022-10-03T03:10:54.085Z,5.20
2022-10-03T03:13:37.910Z,5.38
2022-10-03T03:16:14.273Z,6.03
2022-10-03T03:18:50.618Z,5.30
2022-10-03T03:21:35.897Z,5.80
2022-10-03T03:24:09.075Z,5.30
2022-10-03T03:26:35.719Z,5.68
2022-10-03T03:29:22.427Z,5.95
2022-10-03T03:32:10.948Z,5.47
2022-10-03T03:34:46.271Z,5.72
2022-10-03T03:37:28.235Z,6.35
2022-10-03T03:40:00.846Z,6.45
2022-10-03T03:42:46.462Z,6.07
2022-10-03T03:45:16.299Z,6.43
2022-10-03T03:48:01.607Z,7.50
2022-10-03T03:50:33.533Z,6.47
2022-10-03T03:53:15.284Z,6.40
2022-10-03T03:55:48.610Z,6.38
2022-10-03T03:58:24.280Z,6.60
2022-10-03T04:01:09.223Z,6.40
2022-10-03T04:03:45.115Z,5.95
2022-10-03T04:06:35.034Z,5.57
2022-10-03T04:09:01.482Z,5.70
2022-10-03T04:11:43.342Z,6.45
2022-10-03T04:14:30.034Z,6.32
2022-10-03T04:17:30.765Z,6.60
2022-10-03T04:20:04.394Z,6.53
2022-10-03T04:22:46.344Z,6.50
2022-10-03T04:25:18.129Z,7.93
2022-10-03T04:27:47.770Z,10.23
2022-10-03T04:30:43.741Z,13.35
2022-10-03T04:33:10.242Z,12.18
2022-10-03T04:35:55.623Z,12.10
2022-10-03T04:38:48.644Z,9.57
2022-10-03T04:41:33.845Z,8.77
2022-10-03T04:44:00.364Z,9.05
2022-10-03T04:46:29.920Z,7.20
2022-10-03T04:49:02.499Z,7.47
2022-10-03T04:51:44.312Z,7.57
2022-10-03T04:54:20.006Z,7.32
2022-10-03T04:56:58.570Z,7.63
2022-10-03T04:59:35.053Z,7.10
2022-10-03T05:02:09.859Z,7.55
2022-10-03T05:04:45.342Z,7.38
2022-10-03T05:07:25.380Z,8.38
2022-10-03T05:09:54.391Z,8.07
2022-10-03T05:12:31.187Z,8.30
2022-10-03T05:15:16.162Z,8.65
2022-10-03T05:17:48.987Z,7.13
2022-10-03T05:20:24.563Z,8.00
2022-10-03T05:23:09.951Z,7.20
2022-10-03T05:25:42.752Z,8.15
2022-10-03T05:28:09.339Z,7.82
2022-10-03T05:30:41.640Z,7.78
2022-10-03T05:33:14.315Z,8.25
2022-10-03T05:35:59.919Z,7.45
2022-10-03T05:38:48.797Z,7.80
2022-10-03T05:41:26.362Z,7.85
2022-10-03T05:44:04.480Z,7.57
2022-10-03T05:46:33.964Z,7.45
2022-10-03T05:49:18.957Z,7.75
2022-10-03T05:51:53.725Z,7.18
2022-10-03T05:54:22.947Z,7.25
2022-10-03T05:57:15.894Z,8.00
2022-10-03T06:00:01.307Z,8.82
2022-10-03T06:02:47.041Z,7.82
2022-10-03T06:05:32.371Z,7.28
2022-10-03T06:08:12.442Z,7.72
2022-10-03T06:10:43.189Z,8.05
2022-10-03T06:13:30.707Z,8.80
2022-10-03T06:16:12.422Z,9.18
2022-10-03T06:19:06.328Z,9.82
2022-10-03T06:21:53.894Z,10.40
2022-10-03T06:24:39.938Z,10.90
2022-10-03T06:27:09.479Z,12.05
2022-10-03T06:29:53.862Z,12.20
2022-10-03T06:32:52.659Z,12.07
2022-10-03T06:35:37.406Z,11.38
2022-10-03T06:38:18.007Z,12.80
2022-10-03T06:41:03.682Z,12.82
2022-10-03T06:43:49.110Z,15.60
2022-10-03T06:46:34.459Z,14.30
2022-10-03T06:49:19.032Z,15.23
2022-10-03T06:51:52.039Z,16.52
2022-10-03T06:54:43.841Z,15.93
2022-10-03T06:57:10.362Z,15.88
2022-10-03T06:59:45.400Z,16.70
2022-10-03T07:02:30.952Z,17.42
2022-10-03T07:05:16.310Z,18.75
2022-10-03T07:07:45.803Z,17.50
2022-10-03T07:10:21.510Z,18.23
2022-10-03T07:13:06.948Z,17.35
2022-10-03T07:16:14.358Z,15.93
2022-10-03T07:18:41.894Z,15.68
2022-10-03T07:21:25.423Z,16.80
2022-10-03T07:24:17.004Z,14.90
2022-10-03T07:27:02.252Z,17.27
2022-10-03T07:29:37.836Z,17.88
2022-10-03T07:32:10.230Z,20.02
2022-10-03T07:34:51.203Z,18.25
2022-10-03T07:37:55.398Z,17.08
2022-10-03T07:40:24.873Z,15.30
2022-10-03T07:43:03.774Z,15.20
2022-10-03T07:45:34.640Z,15.27
2022-10-03T07:48:17.490Z,15.45
2022-10-03T07:51:02.586Z,16.77
2022-10-03T07:53:43.411Z,15.27
2022-10-03T07:56:29.323Z,15.18
2022-10-03T07:59:18.297Z,15.05
2022-10-03T08:02:05.260Z,14.35
2022-10-03T08:04:31.644Z,13.63
2022-10-03T08:07:13.500Z,13.63
2022-10-03T08:09:46.929Z,15.48
2022-10-03T08:12:25.738Z,14.65
2022-10-03T08:15:06.359Z,12.45
2022-10-03T08:17:55.618Z,13.05
2022-10-03T08:20:45.231Z,13.48
2022-10-03T08:23:20.678Z,14.35
2022-10-03T08:25:47.165Z,14.75
2022-10-03T08:28:30.319Z,12.90
2022-10-03T08:31:06.151Z,13.80
2022-10-03T08:33:32.678Z,14.00
2022-10-03T08:36:18.033Z,16.02
2022-10-03T08:39:03.499Z,14.50
2022-10-03T08:41:36.259Z,15.07
2022-10-03T08:44:21.621Z,15.20
2022-10-03T08:47:07.050Z,16.63
2022-10-03T08:49:52.086Z,14.20
2022-10-03T08:52:54.084Z,13.52
2022-10-03T08:55:20.765Z,12.98
2022-10-03T08:58:05.903Z,13.85
2022-10-03T09:00:42.688Z,14.52
2022-10-03T09:03:34.359Z,10.30
2022-10-03T09:06:24.740Z,11.05
2022-10-03T09:09:03.753Z,12.52
2022-10-03T09:11:38.074Z,11.15
2022-10-03T09:14:05.103Z,12.40
2022-10-03T09:16:34.703Z,11.25
2022-10-03T09:19:19.797Z,11.10
2022-10-03T09:22:01.615Z,12.45
2022-10-03T09:24:40.432Z,10.68
2022-10-03T09:27:26.882Z,9.90
2022-10-03T09:29:53.540Z,9.65
2022-10-03T09:32:26.025Z,8.88
2022-10-03T09:35:00.305Z,9.80
2022-10-03T09:37:37.259Z,9.77
2022-10-03T09:40:22.089Z,9.43
2022-10-03T09:43:04.054Z,9.65
2022-10-03T09:45:48.084Z,9.48
2022-10-03T09:48:21.702Z,8.60
2022-10-03T09:51:01.660Z,8.70
2022-10-03T09:53:56.856Z,9.02
2022-10-03T09:56:35.008Z,7.47
2022-10-03T09:59:20.549Z,8.70
2022-10-03T10:02:05.833Z,6.68
2022-10-03T10:04:54.743Z,7.32
2022-10-03T10:07:24.936Z,6.72
2022-10-03T10:10:10.729Z,5.93
2022-10-03T10:12:56.006Z,4.95
2022-10-03T10:15:41.437Z,5.35
2022-10-03T10:18:20.219Z,5.28
2022-10-03T10:21:05.986Z,5.47
2022-10-03T10:23:48.858Z,5.82
2022-10-03T10:26:30.706Z,5.45
2022-10-03T10:29:12.751Z,5.07
2022-10-03T10:31:42.311Z,4.45
2022-10-03T10:34:26.602Z,4.63
2022-10-03T10:36:57.231Z,4.75
2022-10-03T10:39:42.737Z,4.55
2022-10-03T10:42:28.031Z,3.78
2022-10-03T10:45:03.744Z,4.07
2022-10-03T10:47:33.006Z,3.42
2022-10-03T10:50:32.107Z,3.78
2022-10-03T10:53:17.522Z,3.42
2022-10-03T10:55:47.005Z,3.00
2022-10-03T10:58:19.733Z,3.55
2022-10-03T11:00:52.216Z,3.38
2022-10-03T11:03:37.780Z,3.20
2022-10-03T11:06:10.311Z,3.38
2022-10-03T11:08:56.847Z,2.92
2022-10-03T11:11:47.622Z,2.40
2022-10-03T11:14:28.184Z,1.90
2022-10-03T11:16:57.590Z,2.10
2022-10-03T11:19:25.098Z,2.72
2022-10-03T11:22:07.045Z,1.95
2022-10-03T11:24:42.674Z,1.77
2022-10-03T11:27:09.188Z,2.15
2022-10-03T11:29:41.119Z,2.00
2022-10-03T11:32:37.559Z,2.22
2022-10-03T11:35:18.525Z,2.20
2022-10-03T11:38:03.603Z,2.40
2022-10-03T11:40:49.133Z,2.55
2022-10-03T11:43:15.906Z,2.30
2022-10-03T11:45:47.940Z,2.17
2022-10-03T11:48:20.228Z,2.50
2022-10-03T11:51:10.018Z,2.08
2022-10-03T11:53:36.427Z,1.98
2022-10-03T11:56:08.757Z,2.45
2022-10-03T11:58:47.691Z,1.90
2022-10-03T12:01:20.246Z,2.15
2022-10-03T12:03:57.438Z,2.05
2022-10-03T12:06:58.730Z,2.05
2022-10-03T12:09:45.863Z,2.03
2022-10-03T12:12:16.337Z,2.17
2022-10-03T12:14:46.518Z,1.52
2022-10-03T12:17:33.320Z,2.08
2022-10-03T12:20:16.520Z,1.80
2022-10-03T12:22:57.737Z,1.67
2022-10-03T12:25:43.649Z,1.50
2022-10-03T12:28:20.870Z,1.88
2022-10-03T12:30:55.548Z,1.77
2022-10-03T12:33:28.125Z,1.48
2022-10-03T12:36:03.192Z,1.80
2022-10-03T12:38:35.628Z,1.60
2022-10-03T12:41:16.496Z,2.45
2022-10-03T12:43:53.782Z,1.85
2022-10-03T12:46:30.290Z,1.10
2022-10-03T12:49:02.464Z,1.90
2022-10-03T12:51:39.757Z,1.92
2022-10-03T12:54:15.561Z,1.45
2022-10-03T12:56:43.031Z,1.50
2022-10-03T12:59:28.386Z,1.65
2022-10-03T13:02:15.451Z,1.52
2022-10-03T13:04:42.034Z,1.73
2022-10-03T13:07:23.988Z,1.23
2022-10-03T13:09:59.965Z,1.40
2022-10-03T13:12:28.085Z,1.50
2022-10-03T13:15:17.093Z,5.22
2022-10-03T13:17:49.586Z,1.50
2022-10-03T13:20:22.767Z,1.42
2022-10-03T13:22:52.604Z,1.45
2022-10-03T13:25:32.096Z,1.80
2022-10-03T13:28:06.328Z,1.65
2022-10-03T13:30:46.271Z,1.58
2022-10-03T13:33:22.285Z,1.30
2022-10-03T13:36:10.051Z,1.83
2022-10-03T13:38:46.697Z,1.55
2022-10-03T13:41:26.447Z,3.40
2022-10-03T13:44:01.654Z,1.75
2022-10-03T13:46:45.026Z,1.83
2022-10-03T13:49:18.856Z,1.25
2022-10-03T13:52:03.036Z,1.95
2022-10-03T13:54:49.994Z,1.80
2022-10-03T13:57:20.708Z,1.88
2022-10-03T13:59:53.263Z,1.40
2022-10-03T14:02:32.812Z,1.52
2022-10-03T14:05:05.487Z,1.90
2022-10-03T14:07:47.450Z,1.40
2022-10-03T14:10:33.155Z,1.70
2022-10-03T14:13:12.693Z,1.35
2022-10-03T14:15:45.474Z,1.40
2022-10-03T14:18:17.807Z,1.40
2022-10-03T14:20:53.683Z,1.70
2022-10-03T14:23:26.753Z,1.10
2022-10-03T14:26:00.192Z,1.35
2022-10-03T14:28:35.126Z,1.58
2022-10-03T14:31:06.447Z,1.50
2022-10-03T14:33:56.647Z,1.58
2022-10-03T14:36:29.923Z,1.30
2022-10-03T14:39:02.461Z,1.45
2022-10-03T14:41:32.005Z,1.52
2022-10-03T14:44:13.606Z,1.30
2022-10-03T14:46:48.906Z,1.45
2022-10-03T14:49:48.623Z,1.20
2022-10-03T14:52:29.436Z,1.73
2022-10-03T14:54:57.382Z,1.77
2022-10-03T14:57:53.193Z,1.20
2022-10-03T15:00:28.020Z,1.40
2022-10-03T15:02:54.897Z,1.17
2022-10-03T15:05:32.100Z,1.40
2022-10-03T15:07:59.101Z,1.60
2022-10-03T15:10:27.040Z,1.30
2022-10-03T15:12:55.899Z,1.50
2022-10-03T15:15:31.226Z,1.00
2022-10-03T15:18:00.560Z,1.20
2022-10-03T15:20:30.959Z,1.42
2022-10-03T15:23:00.353Z,1.40
2022-10-03T15:25:33.909Z,1.90
2022-10-03T15:28:04.229Z,1.65
2022-10-03T15:30:33.542Z,1.80
2022-10-03T15:33:19.587Z,2.47
2022-10-03T15:35:48.363Z,1.75
2022-10-03T15:38:16.706Z,1.52
2022-10-03T15:40:54.471Z,1.95
2022-10-03T15:43:24.191Z,1.33
2022-10-03T15:45:51.387Z,1.60
2022-10-03T15:48:21.564Z,1.50
2022-10-03T15:50:52.840Z,1.58
2022-10-03T15:53:36.109Z,1.92
2022-10-03T15:56:15.450Z,1.35
2022-10-03T15:58:50.114Z,1.60
2022-10-03T16:01:31.640Z,2.00
2022-10-03T16:04:02.527Z,1.40
2022-10-03T16:06:49.382Z,1.95
2022-10-03T16:09:22.147Z,1.90
2022-10-03T16:11:55.092Z,1.50
2022-10-03T16:14:32.738Z,1.75
2022-10-03T16:17:25.581Z,1.25
2022-10-03T16:19:58.570Z,1.48
2022-10-03T16:22:34.782Z,1.90
2022-10-03T16:25:16.185Z,1.58
2022-10-03T16:27:48.159Z,1.83
2022-10-03T16:30:18.955Z,1.42
2022-10-03T16:32:51.272Z,1.90
2022-10-03T16:35:29.446Z,1.75
2022-10-03T16:37:56.263Z,1.63
2022-10-03T16:40:24.360Z,1.35
2022-10-03T16:42:52.153Z,1.58
2022-10-03T16:45:22.295Z,1.48
2022-10-03T16:48:09.693Z,1.90
2022-10-03T16:50:38.845Z,1.55
2022-10-03T16:53:11.238Z,1.55
2022-10-03T16:55:45.926Z,1.60
2022-10-03T16:58:20.631Z,2.47
2022-10-03T17:01:25.911Z,1.70
2022-10-03T17:04:10.835Z,1.95
2022-10-03T17:06:38.163Z,2.33
2022-10-03T17:09:08.251Z,2.42
2022-10-03T17:11:35.932Z,1.80
2022-10-03T17:14:04.223Z,1.85
2022-10-03T17:16:47.275Z,1.88
2022-10-03T17:19:35.294Z,2.15
2022-10-03T17:22:13.620Z,2.13
2022-10-03T17:24:47.979Z,2.00
2022-10-03T17:27:23.607Z,2.45
2022-10-03T17:30:03.397Z,2.22
2022-10-03T17:32:30.015Z,1.90
2022-10-03T17:35:00.670Z,2.65
2022-10-03T17:37:33.170Z,2.45
2022-10-03T17:39:59.853Z,2.03
2022-10-03T17:42:32.572Z,2.30
2022-10-03T17:45:12.328Z,3.08
2022-10-03T17:47:52.637Z,3.33
2022-10-03T17:50:22.744Z,4.10
2022-10-03T17:52:50.348Z,3.60
2022-10-03T17:55:38.034Z,3.90
2022-10-03T17:58:12.716Z,2.85
2022-10-03T18:00:45.367Z,2.80
2022-10-03T18:03:18.101Z,3.30
2022-10-03T18:05:47.081Z,3.58
2022-10-03T18:08:17.809Z,3.42
2022-10-03T18:10:49.519Z,3.20
2022-10-03T18:13:19.026Z,4.32
2022-10-03T18:15:57.946Z,4.18
2022-10-03T18:18:40.141Z,4.68
2022-10-03T18:21:10.683Z,3.55
2022-10-03T18:23:54.373Z,3.70
2022-10-03T18:26:41.329Z,3.88
2022-10-03T18:29:11.595Z,4.32
2022-10-03T18:31:45.282Z,3.90
2022-10-03T18:34:21.820Z,3.67
2022-10-03T18:36:50.217Z,4.75
2022-10-03T18:39:43.080Z,4.90
2022-10-03T18:42:11.819Z,5.03
2022-10-03T18:44:43.932Z,5.30
2022-10-03T18:47:26.223Z,4.95
2022-10-03T18:50:11.504Z,4.80
2022-10-03T18:52:52.485Z,4.50
2022-10-03T18:55:23.158Z,5.50
2022-10-03T18:57:56.434Z,4.78
2022-10-03T19:00:28.074Z,5.28
2022-10-03T19:02:59.267Z,5.18
2022-10-03T19:05:30.587Z,6.05
2022-10-03T19:08:00.152Z,5.72
2022-10-03T19:10:31.559Z,6.07
2022-10-03T19:13:08.995Z,6.00
2022-10-03T19:15:54.068Z,6.28
2022-10-03T19:18:26.281Z,5.82
2022-10-03T19:21:01.317Z,6.40
2022-10-03T19:23:38.689Z,6.10
2022-10-03T19:26:07.409Z,6.57
2022-10-03T19:29:00.352Z,7.03
2022-10-03T19:31:38.698Z,7.15
2022-10-03T19:34:12.439Z,7.35
2022-10-03T19:36:39.675Z,6.75
2022-10-03T19:39:07.490Z,6.05
2022-10-03T19:41:39.330Z,6.97
2022-10-03T19:44:08.039Z,5.88
2022-10-03T19:46:39.251Z,7.75
2022-10-03T19:49:15.095Z,7.22
2022-10-03T19:51:41.784Z,7.00
2022-10-03T19:54:12.815Z,6.90
2022-10-03T19:56:39.526Z,7.15
2022-10-03T19:59:07.078Z,6.82
2022-10-03T20:01:44.258Z,7.78
2022-10-03T20:04:11.299Z,7.63
2022-10-03T20:06:40.529Z,8.10
2022-10-03T20:09:23.935Z,7.65
2022-10-03T20:11:58.998Z,8.18
2022-10-03T20:14:29.382Z,8.13
2022-10-03T20:16:58.841Z,9.23
2022-10-03T20:19:27.169Z,7.45
2022-10-03T20:21:54.358Z,6.85
2022-10-03T20:24:32.757Z,7.30
2022-10-03T20:27:21.244Z,7.45
2022-10-03T20:29:59.114Z,7.10
2022-10-03T20:32:25.821Z,7.63
2022-10-03T20:34:54.253Z,8.73
2022-10-03T20:37:37.101Z,8.20
2022-10-03T20:40:16.376Z,8.38
2022-10-03T20:42:46.909Z,8.65
2022-10-03T20:45:16.884Z,7.70
2022-10-03T20:48:02.393Z,8.43
2022-10-03T20:50:33.729Z,7.95
2022-10-03T20:53:04.765Z,8.75
2022-10-03T20:55:34.655Z,9.00
2022-10-03T20:58:01.088Z,9.30
2022-10-03T21:00:28.676Z,9.05
2022-10-03T21:03:06.945Z,8.45
2022-10-03T21:05:52.509Z,8.25
2022-10-03T21:08:36.652Z,7.85
2022-10-03T21:11:15.728Z,8.63
2022-10-03T21:13:49.713Z,10.68
2022-10-03T21:16:19.367Z,11.20
2022-10-03T21:18:47.476Z,9.93
2022-10-03T21:21:40.955Z,11.82
2022-10-03T21:24:15.650Z,12.02
2022-10-03T21:26:46.520Z,11.30
2022-10-03T21:29:17.430Z,10.65
2022-10-03T21:32:02.991Z,10.18
2022-10-03T21:34:29.442Z,10.65
2022-10-03T21:37:05.396Z,9.60
2022-10-03T21:39:44.472Z,9.93
2022-10-03T21:42:23.248Z,9.82
2022-10-03T21:45:25.291Z,9.93
2022-10-03T21:47:58.820Z,10.02
2022-10-03T21:50:27.857Z,10.95
2022-10-03T21:53:05.673Z,10.18
2022-10-03T21:55:51.172Z,10.57
2022-10-03T21:58:49.775Z,10.30
2022-10-03T22:01:23.302Z,10.55
2022-10-03T22:04:08.462Z,10.27
2022-10-03T22:06:38.345Z,9.95
2022-10-03T22:09:11.186Z,10.48
2022-10-03T22:11:43.131Z,10.18
2022-10-03T22:14:17.196Z,10.38
2022-10-03T22:16:43.602Z,10.30
2022-10-03T22:19:19.179Z,10.90
2022-10-03T22:21:51.596Z,11.18
2022-10-03T22:24:18.222Z,10.35
2022-10-03T22:26:48.789Z,10.60
2022-10-03T22:29:16.680Z,12.35
2022-10-03T22:31:45.997Z,9.95
2022-10-03T22:34:36.375Z,10.73
2022-10-03T22:37:02.914Z,13.77
2022-10-03T22:39:29.631Z,10.75
2022-10-03T22:42:03.273Z,21.35
2022-10-03T22:44:31.817Z,9.88
2022-10-03T22:47:01.604Z,10.20
2022-10-03T22:49:38.341Z,11.23
2022-10-03T22:52:06.741Z,13.73
2022-10-03T22:54:38.813Z,10.90
2022-10-03T22:57:09.209Z,11.68
2022-10-03T22:59:42.020Z,11.23
2022-10-03T23:02:09.843Z,12.38
2022-10-03T23:04:45.361Z,11.75
2022-10-03T23:07:15.042Z,11.40
2022-10-03T23:09:47.738Z,11.15
2022-10-03T23:12:14.970Z,10.88
2022-10-03T23:14:44.673Z,11.68
2022-10-03T23:17:11.128Z,12.75
2022-10-03T23:19:56.419Z,12.05
2022-10-03T23:22:24.968Z,14.32
2022-10-03T23:24:57.090Z,12.98
2022-10-03T23:27:32.707Z,13.38
2022-10-03T23:30:11.308Z,13.93
2022-10-03T23:32:46.955Z,12.57
2022-10-03T23:35:20.636Z,13.63
2022-10-03T23:37:48.339Z,11.77
2022-10-03T23:40:35.252Z,11.10
2022-10-03T23:43:20.504Z,10.90
2022-10-03T23:45:50.518Z,11.10
2022-10-03T23:48:17.848Z,12.85
2022-10-03T23:50:46.974Z,11.30
2022-10-03T23:53:38.828Z,12.43
2022-10-03T23:56:24.050Z,11.60
2022-10-03T23:58:58.240Z,11.10
